sensor_id;sensor_type;location;lat;lon;timestamp;temperature;humidity
3816;DHT22;1923;48.154;11.536;2024-02-21T00:00:15;6.70;99.90
3816;DHT22;1923;48.154;11.536;2024-02-21T00:02:45;6.80;99.90
3816;DHT22;1923;48.154;11.536;2024-02-21T00:05:13;6.80;99.90
3816;DHT22;1923;48.154;11.536;2024-02-21T00:07:41;6.90;99.90
3816;DHT22;1923;48.154;11.536;2024-02-21T00:10:09;6.80;99.90
3816;DHT22;1923;48.154;11.536;2024-02-21T00:12:37;6.70;99.90
3816;DHT22;1923;48.154;11.536;2024-02-21T00:15:06;6.80;99.90
3816;DHT22;1923;48.154;11.536;2024-02-21T00:17:35;6.70;99.90
3816;DHT22;1923;48.154;11.536;2024-02-21T00:20:06;6.70;99.90
3816;DHT22;1923;48.154;11.536;2024-02-21T00:22:34;6.70;99.90
3816;DHT22;1923;48.154;11.536;2024-02-21T00:25:02;6.70;99.90
3816;DHT22;1923;48.154;11.536;2024-02-21T00:27:30;6.60;99.90
3816;DHT22;1923;48.154;11.536;2024-02-21T00:29:59;6.60;99.90
3816;DHT22;1923;48.154;11.536;2024-02-21T00:32:27;6.60;99.90
3816;DHT22;1923;48.154;11.536;2024-02-21T00:34:55;6.60;99.90
3816;DHT22;1923;48.154;11.536;2024-02-21T00:37:24;6.50;99.90
3816;DHT22;1923;48.154;11.536;2024-02-21T00:39:54;6.50;99.90
3816;DHT22;1923;48.154;11.536;2024-02-21T00:42:22;6.60;99.90
3816;DHT22;1923;48.154;11.536;2024-02-21T00:44:50;6.60;99.90
3816;DHT22;1923;48.154;11.536;2024-02-21T00:47:18;6.60;99.90
3816;DHT22;1923;48.154;11.536;2024-02-21T00:49:46;6.60;99.90
3816;DHT22;1923;48.154;11.536;2024-02-21T00:52:17;6.60;99.90
3816;DHT22;1923;48.154;11.536;2024-02-21T00:54:47;6.50;99.90
3816;DHT22;1923;48.154;11.536;2024-02-21T00:57:20;6.50;99.90
3816;DHT22;1923;48.154;11.536;2024-02-21T00:59:49;6.60;99.90
3816;DHT22;1923;48.154;11.536;2024-02-21T01:02:17;6.50;99.90
3816;DHT22;1923;48.154;11.536;2024-02-21T01:04:45;6.50;99.90
3816;DHT22;1923;48.154;11.536;2024-02-21T01:07:13;6.60;99.90
3816;DHT22;1923;48.154;11.536;2024-02-21T01:09:41;6.60;99.90
3816;DHT22;1923;48.154;11.536;2024-02-21T01:12:10;6.60;99.90
3816;DHT22;1923;48.154;11.536;2024-02-21T01:14:39;6.70;99.90
3816;DHT22;1923;48.154;11.536;2024-02-21T01:17:07;6.60;99.90
3816;DHT22;1923;48.154;11.536;2024-02-21T01:19:35;6.60;99.90
3816;DHT22;1923;48.154;11.536;2024-02-21T01:22:03;6.60;99.90
3816;DHT22;1923;48.154;11.536;2024-02-21T01:24:31;6.50;99.90
3816;DHT22;1923;48.154;11.536;2024-02-21T01:26:59;6.60;99.90
3816;DHT22;1923;48.154;11.536;2024-02-21T01:29:29;6.50;99.90
3816;DHT22;1923;48.154;11.536;2024-02-21T01:31:57;6.50;99.90
3816;DHT22;1923;48.154;11.536;2024-02-21T01:34:26;6.50;99.90
3816;DHT22;1923;48.154;11.536;2024-02-21T01:36:58;6.50;99.90
3816;DHT22;1923;48.154;11.536;2024-02-21T01:39:31;6.50;99.90
3816;DHT22;1923;48.154;11.536;2024-02-21T01:41:59;6.50;99.90
3816;DHT22;1923;48.154;11.536;2024-02-21T01:44:28;6.50;99.90
3816;DHT22;1923;48.154;11.536;2024-02-21T01:46:56;6.50;99.90
3816;DHT22;1923;48.154;11.536;2024-02-21T01:49:25;6.60;99.90
3816;DHT22;1923;48.154;11.536;2024-02-21T01:51:53;6.60;99.90
3816;DHT22;1923;48.154;11.536;2024-02-21T01:54:22;6.60;99.90
3816;DHT22;1923;48.154;11.536;2024-02-21T01:56:50;6.60;99.90
3816;DHT22;1923;48.154;11.536;2024-02-21T01:59:19;6.60;99.90
3816;DHT22;1923;48.154;11.536;2024-02-21T02:01:51;6.60;99.90
3816;DHT22;1923;48.154;11.536;2024-02-21T02:04:20;6.60;99.90
3816;DHT22;1923;48.154;11.536;2024-02-21T02:06:48;6.60;99.90
3816;DHT22;1923;48.154;11.536;2024-02-21T02:09:18;6.60;99.90
3816;DHT22;1923;48.154;11.536;2024-02-21T02:11:46;6.60;99.90
3816;DHT22;1923;48.154;11.536;2024-02-21T02:14:14;6.70;99.90
3816;DHT22;1923;48.154;11.536;2024-02-21T02:16:42;6.60;99.90
3816;DHT22;1923;48.154;11.536;2024-02-21T02:19:11;6.70;99.90
3816;DHT22;1923;48.154;11.536;2024-02-21T02:21:44;6.70;99.90
3816;DHT22;1923;48.154;11.536;2024-02-21T02:24:16;6.70;99.90
3816;DHT22;1923;48.154;11.536;2024-02-21T02:26:44;6.70;99.90
3816;DHT22;1923;48.154;11.536;2024-02-21T02:29:13;6.70;99.90
3816;DHT22;1923;48.154;11.536;2024-02-21T02:31:41;6.70;99.90
3816;DHT22;1923;48.154;11.536;2024-02-21T02:34:09;6.70;99.90
3816;DHT22;1923;48.154;11.536;2024-02-21T02:36:37;6.70;99.90
3816;DHT22;1923;48.154;11.536;2024-02-21T02:39:05;6.70;99.90
3816;DHT22;1923;48.154;11.536;2024-02-21T02:41:36;6.70;99.90
3816;DHT22;1923;48.154;11.536;2024-02-21T02:44:04;6.70;99.90
3816;DHT22;1923;48.154;11.536;2024-02-21T02:46:32;6.60;99.90
3816;DHT22;1923;48.154;11.536;2024-02-21T02:49:00;6.60;99.90
3816;DHT22;1923;48.154;11.536;2024-02-21T02:51:29;6.70;99.90
3816;DHT22;1923;48.154;11.536;2024-02-21T02:53:57;6.70;99.90
3816;DHT22;1923;48.154;11.536;2024-02-21T02:56:25;6.70;99.90
3816;DHT22;1923;48.154;11.536;2024-02-21T02:58:54;6.70;99.90
3816;DHT22;1923;48.154;11.536;2024-02-21T03:01:25;6.70;99.90
3816;DHT22;1923;48.154;11.536;2024-02-21T03:03:54;6.70;99.90
3816;DHT22;1923;48.154;11.536;2024-02-21T03:06:22;6.70;99.90
3816;DHT22;1923;48.154;11.536;2024-02-21T03:08:50;6.70;99.90
3816;DHT22;1923;48.154;11.536;2024-02-21T03:11:21;6.60;99.90
3816;DHT22;1923;48.154;11.536;2024-02-21T03:13:58;6.60;99.90
3816;DHT22;1923;48.154;11.536;2024-02-21T03:16:26;6.60;99.90
3816;DHT22;1923;48.154;11.536;2024-02-21T03:18:54;6.60;99.90
3816;DHT22;1923;48.154;11.536;2024-02-21T03:21:22;6.60;99.90
3816;DHT22;1923;48.154;11.536;2024-02-21T03:23:50;6.60;99.90
3816;DHT22;1923;48.154;11.536;2024-02-21T03:26:18;6.60;99.90
3816;DHT22;1923;48.154;11.536;2024-02-21T03:28:46;6.70;99.90
3816;DHT22;1923;48.154;11.536;2024-02-21T03:31:16;6.60;99.90
3816;DHT22;1923;48.154;11.536;2024-02-21T03:33:44;6.70;99.90
3816;DHT22;1923;48.154;11.536;2024-02-21T03:36:13;6.70;99.90
3816;DHT22;1923;48.154;11.536;2024-02-21T03:38:42;6.60;99.90
3816;DHT22;1923;48.154;11.536;2024-02-21T03:41:10;6.70;99.90
3816;DHT22;1923;48.154;11.536;2024-02-21T03:43:39;6.60;99.90
3816;DHT22;1923;48.154;11.536;2024-02-21T03:46:07;6.70;99.90
3816;DHT22;1923;48.154;11.536;2024-02-21T03:48:37;6.70;99.90
3816;DHT22;1923;48.154;11.536;2024-02-21T03:51:05;6.60;99.90
3816;DHT22;1923;48.154;11.536;2024-02-21T03:53:33;6.70;99.90
3816;DHT22;1923;48.154;11.536;2024-02-21T03:56:02;6.60;99.90
3816;DHT22;1923;48.154;11.536;2024-02-21T03:58:31;6.60;99.90
3816;DHT22;1923;48.154;11.536;2024-02-21T04:01:00;6.70;99.90
3816;DHT22;1923;48.154;11.536;2024-02-21T04:03:28;6.70;99.90
3816;DHT22;1923;48.154;11.536;2024-02-21T04:06:05;6.70;99.90
3816;DHT22;1923;48.154;11.536;2024-02-21T04:08:33;6.70;99.90
3816;DHT22;1923;48.154;11.536;2024-02-21T04:11:00;6.70;99.90
3816;DHT22;1923;48.154;11.536;2024-02-21T04:13:29;6.70;99.90
3816;DHT22;1923;48.154;11.536;2024-02-21T04:15:57;6.70;99.90
3816;DHT22;1923;48.154;11.536;2024-02-21T04:18:25;6.70;99.90
3816;DHT22;1923;48.154;11.536;2024-02-21T04:20:53;6.70;99.90
3816;DHT22;1923;48.154;11.536;2024-02-21T04:23:22;6.70;99.90
3816;DHT22;1923;48.154;11.536;2024-02-21T04:25:50;6.70;99.90
3816;DHT22;1923;48.154;11.536;2024-02-21T04:28:19;6.60;99.90
3816;DHT22;1923;48.154;11.536;2024-02-21T04:30:47;6.60;99.90
3816;DHT22;1923;48.154;11.536;2024-02-21T04:33:15;6.60;99.90
3816;DHT22;1923;48.154;11.536;2024-02-21T04:35:43;6.50;99.90
3816;DHT22;1923;48.154;11.536;2024-02-21T04:38:11;6.50;99.90
3816;DHT22;1923;48.154;11.536;2024-02-21T04:40:42;6.50;99.90
3816;DHT22;1923;48.154;11.536;2024-02-21T04:43:10;6.50;99.90
3816;DHT22;1923;48.154;11.536;2024-02-21T04:45:38;6.50;99.90
3816;DHT22;1923;48.154;11.536;2024-02-21T04:48:06;6.60;99.90
3816;DHT22;1923;48.154;11.536;2024-02-21T04:50:35;6.50;99.90
3816;DHT22;1923;48.154;11.536;2024-02-21T04:53:03;6.40;99.90
3816;DHT22;1923;48.154;11.536;2024-02-21T04:55:31;6.30;99.90
3816;DHT22;1923;48.154;11.536;2024-02-21T04:58:01;6.30;99.90
3816;DHT22;1923;48.154;11.536;2024-02-21T05:00:29;6.20;99.90
3816;DHT22;1923;48.154;11.536;2024-02-21T05:02:57;6.20;99.90
3816;DHT22;1923;48.154;11.536;2024-02-21T05:05:25;6.20;99.90
3816;DHT22;1923;48.154;11.536;2024-02-21T05:07:53;6.10;99.90
3816;DHT22;1923;48.154;11.536;2024-02-21T05:10:21;6.10;99.90
3816;DHT22;1923;48.154;11.536;2024-02-21T05:12:49;6.00;99.90
3816;DHT22;1923;48.154;11.536;2024-02-21T05:15:19;5.90;99.90
3816;DHT22;1923;48.154;11.536;2024-02-21T05:17:47;6.00;99.90
3816;DHT22;1923;48.154;11.536;2024-02-21T05:20:15;6.00;99.90
3816;DHT22;1923;48.154;11.536;2024-02-21T05:22:43;5.90;99.90
3816;DHT22;1923;48.154;11.536;2024-02-21T05:25:11;5.90;99.90
3816;DHT22;1923;48.154;11.536;2024-02-21T05:27:40;6.00;99.90
3816;DHT22;1923;48.154;11.536;2024-02-21T05:30:08;6.00;99.90
3816;DHT22;1923;48.154;11.536;2024-02-21T05:32:38;5.90;99.90
3816;DHT22;1923;48.154;11.536;2024-02-21T05:35:07;5.90;99.90
3816;DHT22;1923;48.154;11.536;2024-02-21T05:37:35;5.90;99.90
3816;DHT22;1923;48.154;11.536;2024-02-21T05:40:04;6.00;99.90
3816;DHT22;1923;48.154;11.536;2024-02-21T05:42:32;5.90;99.90
3816;DHT22;1923;48.154;11.536;2024-02-21T05:45:00;6.00;99.90
3816;DHT22;1923;48.154;11.536;2024-02-21T05:47:28;6.00;99.90
3816;DHT22;1923;48.154;11.536;2024-02-21T05:49:58;6.10;99.90
3816;DHT22;1923;48.154;11.536;2024-02-21T05:52:26;6.10;99.90
3816;DHT22;1923;48.154;11.536;2024-02-21T05:54:54;6.10;99.90
3816;DHT22;1923;48.154;11.536;2024-02-21T05:57:22;6.10;99.90
3816;DHT22;1923;48.154;11.536;2024-02-21T05:59:50;6.10;99.90
3816;DHT22;1923;48.154;11.536;2024-02-21T06:02:18;6.00;99.90
3816;DHT22;1923;48.154;11.536;2024-02-21T06:04:46;6.00;99.90
3816;DHT22;1923;48.154;11.536;2024-02-21T06:07:16;6.00;99.90
3816;DHT22;1923;48.154;11.536;2024-02-21T06:09:44;5.90;99.90
3816;DHT22;1923;48.154;11.536;2024-02-21T06:12:12;5.90;99.90
3816;DHT22;1923;48.154;11.536;2024-02-21T06:14:40;5.80;99.90
3816;DHT22;1923;48.154;11.536;2024-02-21T06:17:08;5.80;99.90
3816;DHT22;1923;48.154;11.536;2024-02-21T06:19:39;5.80;99.90
3816;DHT22;1923;48.154;11.536;2024-02-21T06:22:08;5.90;99.90
3816;DHT22;1923;48.154;11.536;2024-02-21T06:24:37;5.90;99.90
3816;DHT22;1923;48.154;11.536;2024-02-21T06:27:06;5.90;99.90
3816;DHT22;1923;48.154;11.536;2024-02-21T06:29:37;6.00;99.90
3816;DHT22;1923;48.154;11.536;2024-02-21T06:32:05;6.00;99.90
3816;DHT22;1923;48.154;11.536;2024-02-21T06:34:34;6.00;99.90
3816;DHT22;1923;48.154;11.536;2024-02-21T06:37:02;6.00;99.90
3816;DHT22;1923;48.154;11.536;2024-02-21T06:39:30;6.10;99.90
3816;DHT22;1923;48.154;11.536;2024-02-21T06:41:59;6.10;99.90
3816;DHT22;1923;48.154;11.536;2024-02-21T06:44:29;6.10;99.90
3816;DHT22;1923;48.154;11.536;2024-02-21T06:46:59;6.20;99.90
3816;DHT22;1923;48.154;11.536;2024-02-21T06:49:27;6.30;99.90
3816;DHT22;1923;48.154;11.536;2024-02-21T06:51:55;6.40;99.90
3816;DHT22;1923;48.154;11.536;2024-02-21T06:54:23;6.50;99.90
3816;DHT22;1923;48.154;11.536;2024-02-21T06:56:51;6.50;99.90
3816;DHT22;1923;48.154;11.536;2024-02-21T06:59:20;6.50;99.90
3816;DHT22;1923;48.154;11.536;2024-02-21T07:01:49;6.50;99.90
3816;DHT22;1923;48.154;11.536;2024-02-21T07:04:17;6.60;99.90
3816;DHT22;1923;48.154;11.536;2024-02-21T07:06:45;6.60;99.90
3816;DHT22;1923;48.154;11.536;2024-02-21T07:09:14;6.70;99.90
3816;DHT22;1923;48.154;11.536;2024-02-21T07:11:42;6.80;99.90
3816;DHT22;1923;48.154;11.536;2024-02-21T07:14:10;6.90;99.90
3816;DHT22;1923;48.154;11.536;2024-02-21T07:16:40;7.00;99.90
3816;DHT22;1923;48.154;11.536;2024-02-21T07:19:08;7.10;99.90
3816;DHT22;1923;48.154;11.536;2024-02-21T07:21:36;7.20;99.90
3816;DHT22;1923;48.154;11.536;2024-02-21T07:24:05;7.30;99.90
3816;DHT22;1923;48.154;11.536;2024-02-21T07:26:33;7.40;99.90
3816;DHT22;1923;48.154;11.536;2024-02-21T07:29:01;7.50;99.90
3816;DHT22;1923;48.154;11.536;2024-02-21T07:31:29;7.60;99.90
3816;DHT22;1923;48.154;11.536;2024-02-21T07:33:58;7.60;99.90
3816;DHT22;1923;48.154;11.536;2024-02-21T07:36:29;7.80;99.90
3816;DHT22;1923;48.154;11.536;2024-02-21T07:38:57;7.90;99.90
3816;DHT22;1923;48.154;11.536;2024-02-21T07:41:25;7.90;99.90
3816;DHT22;1923;48.154;11.536;2024-02-21T07:43:55;8.10;99.90
3816;DHT22;1923;48.154;11.536;2024-02-21T07:46:25;8.00;99.90
3816;DHT22;1923;48.154;11.536;2024-02-21T07:48:53;8.00;99.90
3816;DHT22;1923;48.154;11.536;2024-02-21T07:51:23;8.00;99.90
3816;DHT22;1923;48.154;11.536;2024-02-21T07:53:55;7.90;99.90
3816;DHT22;1923;48.154;11.536;2024-02-21T07:56:23;8.40;99.90
3816;DHT22;1923;48.154;11.536;2024-02-21T07:58:51;9.00;99.90
3816;DHT22;1923;48.154;11.536;2024-02-21T08:01:19;9.50;99.90
3816;DHT22;1923;48.154;11.536;2024-02-21T08:03:48;9.80;99.90
3816;DHT22;1923;48.154;11.536;2024-02-21T08:06:16;9.90;99.90
3816;DHT22;1923;48.154;11.536;2024-02-21T08:08:46;9.90;99.90
3816;DHT22;1923;48.154;11.536;2024-02-21T08:11:14;10.20;99.90
3816;DHT22;1923;48.154;11.536;2024-02-21T08:13:42;11.20;99.90
3816;DHT22;1923;48.154;11.536;2024-02-21T08:16:10;12.40;99.90
3816;DHT22;1923;48.154;11.536;2024-02-21T08:18:38;13.30;99.40
3816;DHT22;1923;48.154;11.536;2024-02-21T08:21:06;14.40;97.50
3816;DHT22;1923;48.154;11.536;2024-02-21T08:23:35;15.00;96.30
3816;DHT22;1923;48.154;11.536;2024-02-21T08:26:05;15.30;95.70
3816;DHT22;1923;48.154;11.536;2024-02-21T08:28:33;15.20;94.70
3816;DHT22;1923;48.154;11.536;2024-02-21T08:31:01;14.80;94.10
3816;DHT22;1923;48.154;11.536;2024-02-21T08:33:29;15.00;93.40
3816;DHT22;1923;48.154;11.536;2024-02-21T08:35:57;15.80;92.60
3816;DHT22;1923;48.154;11.536;2024-02-21T08:38:25;16.10;91.70
3816;DHT22;1923;48.154;11.536;2024-02-21T08:40:53;15.70;91.00
3816;DHT22;1923;48.154;11.536;2024-02-21T08:43:23;15.90;91.00
3816;DHT22;1923;48.154;11.536;2024-02-21T08:45:51;16.40;91.00
3816;DHT22;1923;48.154;11.536;2024-02-21T08:48:19;16.60;90.90
3816;DHT22;1923;48.154;11.536;2024-02-21T08:50:47;16.30;90.10
3816;DHT22;1923;48.154;11.536;2024-02-21T08:53:15;16.00;90.60
3816;DHT22;1923;48.154;11.536;2024-02-21T08:55:43;15.90;90.40
3816;DHT22;1923;48.154;11.536;2024-02-21T08:58:12;16.00;91.00
3816;DHT22;1923;48.154;11.536;2024-02-21T09:00:43;16.10;90.10
3816;DHT22;1923;48.154;11.536;2024-02-21T09:03:11;16.20;89.40
3816;DHT22;1923;48.154;11.536;2024-02-21T09:05:39;16.30;88.30
3816;DHT22;1923;48.154;11.536;2024-02-21T09:08:08;17.30;88.00
3816;DHT22;1923;48.154;11.536;2024-02-21T09:10:36;18.70;84.00
3816;DHT22;1923;48.154;11.536;2024-02-21T09:13:04;20.10;79.20
3816;DHT22;1923;48.154;11.536;2024-02-21T09:15:32;21.40;73.60
3816;DHT22;1923;48.154;11.536;2024-02-21T09:18:02;22.50;69.50
3816;DHT22;1923;48.154;11.536;2024-02-21T09:20:30;22.90;66.70
3816;DHT22;1923;48.154;11.536;2024-02-21T09:22:58;23.70;62.20
3816;DHT22;1923;48.154;11.536;2024-02-21T09:25:27;24.20;60.00
3816;DHT22;1923;48.154;11.536;2024-02-21T09:27:55;24.50;58.10
3816;DHT22;1923;48.154;11.536;2024-02-21T09:30:25;24.30;56.20
3816;DHT22;1923;48.154;11.536;2024-02-21T09:32:53;24.30;55.20
3816;DHT22;1923;48.154;11.536;2024-02-21T09:35:22;24.60;54.70
3816;DHT22;1923;48.154;11.536;2024-02-21T09:37:52;24.70;53.60
3816;DHT22;1923;48.154;11.536;2024-02-21T09:40:21;24.20;53.80
3816;DHT22;1923;48.154;11.536;2024-02-21T09:42:49;23.70;54.50
3816;DHT22;1923;48.154;11.536;2024-02-21T09:45:21;23.00;54.00
3816;DHT22;1923;48.154;11.536;2024-02-21T09:48:06;22.80;53.60
3816;DHT22;1923;48.154;11.536;2024-02-21T09:50:39;23.00;53.90
3816;DHT22;1923;48.154;11.536;2024-02-21T09:53:07;23.00;51.70
3816;DHT22;1923;48.154;11.536;2024-02-21T09:55:37;23.10;53.50
3816;DHT22;1923;48.154;11.536;2024-02-21T09:58:07;23.00;52.00
3816;DHT22;1923;48.154;11.536;2024-02-21T10:00:36;23.20;51.60
3816;DHT22;1923;48.154;11.536;2024-02-21T10:03:04;22.90;53.20
3816;DHT22;1923;48.154;11.536;2024-02-21T10:05:37;22.50;53.20
3816;DHT22;1923;48.154;11.536;2024-02-21T10:08:06;22.10;52.70
3816;DHT22;1923;48.154;11.536;2024-02-21T10:10:42;22.30;53.30
3816;DHT22;1923;48.154;11.536;2024-02-21T10:13:24;22.30;53.40
3816;DHT22;1923;48.154;11.536;2024-02-21T10:16:10;22.80;53.40
3816;DHT22;1923;48.154;11.536;2024-02-21T10:18:38;23.10;51.40
3816;DHT22;1923;48.154;11.536;2024-02-21T10:21:08;22.80;51.80
3816;DHT22;1923;48.154;11.536;2024-02-21T10:23:46;22.00;51.40
3816;DHT22;1923;48.154;11.536;2024-02-21T10:26:15;21.50;52.50
3816;DHT22;1923;48.154;11.536;2024-02-21T10:28:44;21.60;53.00
3816;DHT22;1923;48.154;11.536;2024-02-21T10:31:22;22.10;52.10
3816;DHT22;1923;48.154;11.536;2024-02-21T10:34:16;22.60;51.80
3816;DHT22;1923;48.154;11.536;2024-02-21T10:36:47;23.00;52.10
3816;DHT22;1923;48.154;11.536;2024-02-21T10:39:15;23.60;51.50
3816;DHT22;1923;48.154;11.536;2024-02-21T10:41:43;24.30;50.20
3816;DHT22;1923;48.154;11.536;2024-02-21T10:44:12;24.80;49.10
3816;DHT22;1923;48.154;11.536;2024-02-21T10:46:42;24.90;49.70
3816;DHT22;1923;48.154;11.536;2024-02-21T10:49:12;24.60;49.20
3816;DHT22;1923;48.154;11.536;2024-02-21T10:51:43;24.60;49.60
3816;DHT22;1923;48.154;11.536;2024-02-21T10:57:13;24.80;48.20
3816;DHT22;1923;48.154;11.536;2024-02-21T10:59:44;25.00;47.30
3816;DHT22;1923;48.154;11.536;2024-02-21T11:02:12;25.30;47.20
3816;DHT22;1923;48.154;11.536;2024-02-21T11:04:42;25.50;46.70
3816;DHT22;1923;48.154;11.536;2024-02-21T11:07:11;25.30;46.00
3816;DHT22;1923;48.154;11.536;2024-02-21T11:09:49;24.80;46.40
3816;DHT22;1923;48.154;11.536;2024-02-21T11:12:20;24.80;47.00
3816;DHT22;1923;48.154;11.536;2024-02-21T11:14:49;24.90;46.10
3816;DHT22;1923;48.154;11.536;2024-02-21T11:17:17;24.90;45.50
3816;DHT22;1923;48.154;11.536;2024-02-21T11:19:46;25.00;44.30
3816;DHT22;1923;48.154;11.536;2024-02-21T11:22:16;25.00;45.40
3816;DHT22;1923;48.154;11.536;2024-02-21T11:24:46;25.00;42.40
3816;DHT22;1923;48.154;11.536;2024-02-21T11:27:15;25.10;43.30
3816;DHT22;1923;48.154;11.536;2024-02-21T11:29:44;25.00;42.90
3816;DHT22;1923;48.154;11.536;2024-02-21T11:32:14;24.60;42.50
3816;DHT22;1923;48.154;11.536;2024-02-21T11:34:53;24.10;43.40
3816;DHT22;1923;48.154;11.536;2024-02-21T11:37:25;22.70;42.40
3816;DHT22;1923;48.154;11.536;2024-02-21T11:39:55;22.20;44.30
3816;DHT22;1923;48.154;11.536;2024-02-21T11:42:25;21.20;44.00
3816;DHT22;1923;48.154;11.536;2024-02-21T11:44:53;20.60;45.50
3816;DHT22;1923;48.154;11.536;2024-02-21T11:47:24;20.10;47.10
3816;DHT22;1923;48.154;11.536;2024-02-21T11:49:52;19.70;47.50
3816;DHT22;1923;48.154;11.536;2024-02-21T11:52:22;19.40;48.00
3816;DHT22;1923;48.154;11.536;2024-02-21T11:54:54;19.20;47.50
3816;DHT22;1923;48.154;11.536;2024-02-21T11:57:24;19.00;48.60
3816;DHT22;1923;48.154;11.536;2024-02-21T11:59:52;18.50;46.80
3816;DHT22;1923;48.154;11.536;2024-02-21T12:02:26;18.40;46.70
3816;DHT22;1923;48.154;11.536;2024-02-21T12:04:55;18.00;47.60
3816;DHT22;1923;48.154;11.536;2024-02-21T12:07:24;17.90;48.60
3816;DHT22;1923;48.154;11.536;2024-02-21T12:09:52;17.70;49.30
3816;DHT22;1923;48.154;11.536;2024-02-21T12:12:22;17.50;49.20
3816;DHT22;1923;48.154;11.536;2024-02-21T12:14:55;17.40;49.90
3816;DHT22;1923;48.154;11.536;2024-02-21T12:17:25;17.40;50.50
3816;DHT22;1923;48.154;11.536;2024-02-21T12:19:53;17.30;50.50
3816;DHT22;1923;48.154;11.536;2024-02-21T12:22:21;17.10;48.80
3816;DHT22;1923;48.154;11.536;2024-02-21T12:24:49;17.10;49.20
3816;DHT22;1923;48.154;11.536;2024-02-21T12:27:17;17.00;49.80
3816;DHT22;1923;48.154;11.536;2024-02-21T12:29:46;16.80;49.80
3816;DHT22;1923;48.154;11.536;2024-02-21T12:32:15;16.80;48.30
3816;DHT22;1923;48.154;11.536;2024-02-21T12:34:43;16.80;48.60
3816;DHT22;1923;48.154;11.536;2024-02-21T12:37:22;16.50;49.00
3816;DHT22;1923;48.154;11.536;2024-02-21T12:39:52;16.40;48.00
3816;DHT22;1923;48.154;11.536;2024-02-21T12:42:20;16.40;47.30
3816;DHT22;1923;48.154;11.536;2024-02-21T12:44:51;16.20;47.20
3816;DHT22;1923;48.154;11.536;2024-02-21T12:47:19;16.00;48.00
3816;DHT22;1923;48.154;11.536;2024-02-21T12:49:50;16.00;48.40
3816;DHT22;1923;48.154;11.536;2024-02-21T12:52:18;16.00;48.60
3816;DHT22;1923;48.154;11.536;2024-02-21T12:54:46;16.00;48.40
3816;DHT22;1923;48.154;11.536;2024-02-21T12:57:14;15.90;46.60
3816;DHT22;1923;48.154;11.536;2024-02-21T12:59:42;16.00;47.00
3816;DHT22;1923;48.154;11.536;2024-02-21T13:02:12;16.00;47.10
3816;DHT22;1923;48.154;11.536;2024-02-21T13:04:40;16.10;47.30
3816;DHT22;1923;48.154;11.536;2024-02-21T13:07:08;16.00;48.10
3816;DHT22;1923;48.154;11.536;2024-02-21T13:09:36;16.00;48.20
3816;DHT22;1923;48.154;11.536;2024-02-21T13:12:04;15.80;48.80
3816;DHT22;1923;48.154;11.536;2024-02-21T13:14:33;15.80;49.90
3816;DHT22;1923;48.154;11.536;2024-02-21T13:17:02;15.80;49.30
3816;DHT22;1923;48.154;11.536;2024-02-21T13:19:31;15.80;48.40
3816;DHT22;1923;48.154;11.536;2024-02-21T13:22:00;15.70;48.90
3816;DHT22;1923;48.154;11.536;2024-02-21T13:24:30;15.70;49.20
3816;DHT22;1923;48.154;11.536;2024-02-21T13:26:59;15.60;49.00
3816;DHT22;1923;48.154;11.536;2024-02-21T13:29:27;15.60;48.80
3816;DHT22;1923;48.154;11.536;2024-02-21T13:31:56;15.60;48.60
3816;DHT22;1923;48.154;11.536;2024-02-21T13:34:24;15.50;48.50
3816;DHT22;1923;48.154;11.536;2024-02-21T13:36:54;15.50;48.40
3816;DHT22;1923;48.154;11.536;2024-02-21T13:39:22;15.60;48.80
3816;DHT22;1923;48.154;11.536;2024-02-21T13:41:51;15.60;49.40
3816;DHT22;1923;48.154;11.536;2024-02-21T13:44:19;15.60;50.10
3816;DHT22;1923;48.154;11.536;2024-02-21T13:46:47;15.60;49.20
3816;DHT22;1923;48.154;11.536;2024-02-21T13:49:15;15.60;48.90
3816;DHT22;1923;48.154;11.536;2024-02-21T13:51:43;15.50;49.50
3816;DHT22;1923;48.154;11.536;2024-02-21T13:54:14;15.60;49.50
3816;DHT22;1923;48.154;11.536;2024-02-21T13:56:44;15.60;49.90
3816;DHT22;1923;48.154;11.536;2024-02-21T13:59:12;15.50;49.70
3816;DHT22;1923;48.154;11.536;2024-02-21T14:01:41;15.50;49.80
3816;DHT22;1923;48.154;11.536;2024-02-21T14:04:09;15.50;49.00
3816;DHT22;1923;48.154;11.536;2024-02-21T14:06:38;15.60;49.50
3816;DHT22;1923;48.154;11.536;2024-02-21T14:09:10;15.60;50.30
3816;DHT22;1923;48.154;11.536;2024-02-21T14:11:39;15.60;49.80
3816;DHT22;1923;48.154;11.536;2024-02-21T14:14:08;15.70;50.70
3816;DHT22;1923;48.154;11.536;2024-02-21T14:16:37;15.60;50.90
3816;DHT22;1923;48.154;11.536;2024-02-21T14:19:05;15.70;50.60
3816;DHT22;1923;48.154;11.536;2024-02-21T14:21:34;15.60;50.80
3816;DHT22;1923;48.154;11.536;2024-02-21T14:24:04;15.60;51.50
3816;DHT22;1923;48.154;11.536;2024-02-21T14:26:32;15.60;51.00
3816;DHT22;1923;48.154;11.536;2024-02-21T14:29:02;15.60;50.80
3816;DHT22;1923;48.154;11.536;2024-02-21T14:31:31;15.60;51.00
3816;DHT22;1923;48.154;11.536;2024-02-21T14:33:59;15.40;50.90
3816;DHT22;1923;48.154;11.536;2024-02-21T14:36:29;15.50;52.00
3816;DHT22;1923;48.154;11.536;2024-02-21T14:38:57;15.40;51.20
3816;DHT22;1923;48.154;11.536;2024-02-21T14:41:25;15.40;51.20
3816;DHT22;1923;48.154;11.536;2024-02-21T14:43:54;15.40;50.10
3816;DHT22;1923;48.154;11.536;2024-02-21T14:46:31;15.40;51.50
3816;DHT22;1923;48.154;11.536;2024-02-21T14:49:00;15.40;51.30
3816;DHT22;1923;48.154;11.536;2024-02-21T14:51:28;15.30;51.00
3816;DHT22;1923;48.154;11.536;2024-02-21T14:53:57;15.30;51.80
3816;DHT22;1923;48.154;11.536;2024-02-21T14:56:25;15.30;51.20
3816;DHT22;1923;48.154;11.536;2024-02-21T14:58:53;15.30;51.90
3816;DHT22;1923;48.154;11.536;2024-02-21T15:01:26;15.30;51.50
3816;DHT22;1923;48.154;11.536;2024-02-21T15:03:55;15.20;51.90
3816;DHT22;1923;48.154;11.536;2024-02-21T15:06:23;15.20;51.20
3816;DHT22;1923;48.154;11.536;2024-02-21T15:08:51;15.20;52.20
3816;DHT22;1923;48.154;11.536;2024-02-21T15:11:20;15.10;51.70
3816;DHT22;1923;48.154;11.536;2024-02-21T15:13:49;15.00;52.70
3816;DHT22;1923;48.154;11.536;2024-02-21T15:16:17;15.00;53.00
3816;DHT22;1923;48.154;11.536;2024-02-21T15:18:46;15.00;52.20
3816;DHT22;1923;48.154;11.536;2024-02-21T15:21:16;15.00;53.10
3816;DHT22;1923;48.154;11.536;2024-02-21T15:23:45;15.00;52.60
3816;DHT22;1923;48.154;11.536;2024-02-21T15:26:13;15.00;53.80
3816;DHT22;1923;48.154;11.536;2024-02-21T15:28:42;15.00;52.80
3816;DHT22;1923;48.154;11.536;2024-02-21T15:31:19;14.90;52.80
3816;DHT22;1923;48.154;11.536;2024-02-21T15:33:49;14.80;53.10
3816;DHT22;1923;48.154;11.536;2024-02-21T15:36:19;14.80;54.00
3816;DHT22;1923;48.154;11.536;2024-02-21T15:38:47;14.90;55.10
3816;DHT22;1923;48.154;11.536;2024-02-21T15:41:16;14.80;54.30
3816;DHT22;1923;48.154;11.536;2024-02-21T15:43:48;14.70;53.90
3816;DHT22;1923;48.154;11.536;2024-02-21T15:46:20;14.80;54.30
3816;DHT22;1923;48.154;11.536;2024-02-21T15:48:48;14.70;54.80
3816;DHT22;1923;48.154;11.536;2024-02-21T15:51:23;14.60;54.60
3816;DHT22;1923;48.154;11.536;2024-02-21T15:53:51;14.60;54.40
3816;DHT22;1923;48.154;11.536;2024-02-21T15:56:19;14.50;55.00
3816;DHT22;1923;48.154;11.536;2024-02-21T15:58:47;14.50;55.20
3816;DHT22;1923;48.154;11.536;2024-02-21T16:01:15;14.50;55.90
3816;DHT22;1923;48.154;11.536;2024-02-21T16:03:43;14.40;54.90
3816;DHT22;1923;48.154;11.536;2024-02-21T16:06:11;14.40;55.60
3816;DHT22;1923;48.154;11.536;2024-02-21T16:08:41;14.40;55.90